createdAt,value
2019-03-03T00:01:24.254Z,20.52
2019-03-03T00:03:51.458Z,21.05
2019-03-03T00:06:18.495Z,20.52
2019-03-03T00:08:47.942Z,19.95
2019-03-03T00:11:18.862Z,20.40
2019-03-03T00:13:48.939Z,20.70
2019-03-03T00:16:16.952Z,20.95
2019-03-03T00:18:43.978Z,19.40
2019-03-03T00:21:13.222Z,20.27
2019-03-03T00:23:42.332Z,18.67
2019-03-03T00:26:09.386Z,20.77
2019-03-03T00:28:36.451Z,20.00
2019-03-03T00:31:03.625Z,19.42
2019-03-03T00:33:30.705Z,19.95
2019-03-03T00:35:57.843Z,21.62
2019-03-03T00:38:29.566Z,21.42
2019-03-03T00:41:17.201Z,21.05
2019-03-03T00:44:16.112Z,21.02
2019-03-03T00:47:08.578Z,21.42
2019-03-03T00:49:49.102Z,19.67
2019-03-03T00:52:34.322Z,19.70
2019-03-03T00:55:31.102Z,20.30
2019-03-03T00:58:04.830Z,20.65
2019-03-03T01:00:36.576Z,20.48
2019-03-03T01:03:18.471Z,19.02
2019-03-03T01:06:12.023Z,19.52
2019-03-03T01:08:48.681Z,20.17
2019-03-03T01:11:26.106Z,19.05
2019-03-03T01:14:01.721Z,19.07
2019-03-03T01:16:54.317Z,20.00
2019-03-03T01:19:30.930Z,17.82
2019-03-03T01:22:06.973Z,19.42
2019-03-03T01:25:11.774Z,19.87
2019-03-03T01:27:38.898Z,18.98
2019-03-03T01:30:08.687Z,18.07
2019-03-03T01:32:35.825Z,17.62
2019-03-03T01:35:03.653Z,18.92
2019-03-03T01:37:31.119Z,18.40
2019-03-03T01:39:59.475Z,18.48
2019-03-03T01:42:26.907Z,18.15
2019-03-03T01:44:54.022Z,17.32
2019-03-03T01:47:21.302Z,17.67
2019-03-03T01:49:48.666Z,19.60
2019-03-03T01:52:15.654Z,19.15
2019-03-03T01:54:42.680Z,17.48
2019-03-03T01:57:09.754Z,18.00
2019-03-03T01:59:36.822Z,17.67
2019-03-03T02:02:04.726Z,14.73
2019-03-03T02:04:32.098Z,16.48
2019-03-03T02:07:01.001Z,16.10
2019-03-03T02:09:28.720Z,15.88
2019-03-03T02:11:56.158Z,13.40
2019-03-03T02:14:23.455Z,14.05
2019-03-03T02:16:50.530Z,14.90
2019-03-03T02:19:17.527Z,14.58
2019-03-03T02:21:44.648Z,14.45
2019-03-03T02:24:11.814Z,15.50
2019-03-03T02:26:39.655Z,15.63
2019-03-03T02:29:06.785Z,14.60
2019-03-03T02:31:34.341Z,15.28
2019-03-03T02:34:01.890Z,14.45
2019-03-03T02:36:29.250Z,15.75
2019-03-03T02:38:56.400Z,15.50
2019-03-03T02:41:23.935Z,15.78
2019-03-03T02:43:51.118Z,14.55
2019-03-03T02:46:18.220Z,14.10
2019-03-03T02:48:45.246Z,12.78
2019-03-03T02:51:12.818Z,14.47
2019-03-03T02:53:40.070Z,12.95
2019-03-03T02:56:07.163Z,12.18
2019-03-03T02:58:34.186Z,11.73
2019-03-03T03:01:21.640Z,13.00
2019-03-03T03:03:48.890Z,13.15
2019-03-03T03:06:37.346Z,11.80
2019-03-03T03:09:17.099Z,10.38
2019-03-03T03:12:02.874Z,11.30
2019-03-03T03:14:50.294Z,10.05
2019-03-03T03:17:24.527Z,9.33
2019-03-03T03:20:05.313Z,10.75
2019-03-03T03:22:52.666Z,9.85
2019-03-03T03:25:27.177Z,8.93
2019-03-03T03:28:11.739Z,10.15
2019-03-03T03:30:49.111Z,9.53
2019-03-03T03:33:21.339Z,8.28
2019-03-03T03:35:54.095Z,9.05
2019-03-03T03:38:40.868Z,8.08
2019-03-03T03:41:13.467Z,7.50
2019-03-03T03:43:58.703Z,7.95
2019-03-03T03:47:20.380Z,7.58
2019-03-03T03:49:56.231Z,6.72
2019-03-03T03:52:33.522Z,7.60
2019-03-03T03:55:14.017Z,7.03
2019-03-03T03:57:55.228Z,5.53
2019-03-03T04:00:40.471Z,6.05
2019-03-03T04:03:26.054Z,5.75
2019-03-03T04:06:01.496Z,6.10
2019-03-03T04:08:48.936Z,5.03
2019-03-03T04:11:23.327Z,5.53
2019-03-03T04:14:09.097Z,4.67
2019-03-03T04:16:59.644Z,5.50
2019-03-03T04:19:39.475Z,4.58
2019-03-03T04:22:25.098Z,4.85
2019-03-03T04:25:10.867Z,5.62
2019-03-03T04:28:09.814Z,5.30
2019-03-03T04:30:43.208Z,5.20
2019-03-03T04:33:32.816Z,4.90
2019-03-03T04:36:17.839Z,5.12
2019-03-03T04:39:10.733Z,4.83
2019-03-03T04:41:46.170Z,3.98
2019-03-03T04:44:36.068Z,5.05
2019-03-03T04:47:25.212Z,5.00
2019-03-03T04:50:17.047Z,5.05
2019-03-03T04:52:57.159Z,4.87
2019-03-03T04:55:48.642Z,6.03
2019-03-03T04:58:35.240Z,5.67
2019-03-03T05:01:31.626Z,5.75
2019-03-03T05:04:06.087Z,4.60
2019-03-03T05:06:39.954Z,4.72
2019-03-03T05:09:15.130Z,4.22
2019-03-03T05:12:30.251Z,5.28
2019-03-03T05:15:03.487Z,4.42
2019-03-03T05:17:37.558Z,4.90
2019-03-03T05:20:05.394Z,6.33
2019-03-03T05:22:32.898Z,4.28
2019-03-03T05:24:59.901Z,4.90
2019-03-03T05:27:27.031Z,4.80
2019-03-03T05:29:54.143Z,5.62
2019-03-03T05:32:21.455Z,5.30
2019-03-03T05:34:48.555Z,5.90
2019-03-03T05:37:15.575Z,5.10
2019-03-03T05:39:42.952Z,4.92
2019-03-03T05:42:10.044Z,6.17
2019-03-03T05:44:37.399Z,5.78
2019-03-03T05:47:04.549Z,5.62
2019-03-03T05:49:31.551Z,5.40
2019-03-03T05:51:58.894Z,5.25
2019-03-03T05:54:26.155Z,5.80
2019-03-03T05:56:53.467Z,5.62
2019-03-03T05:59:20.624Z,5.47
2019-03-03T06:01:47.698Z,6.72
2019-03-03T06:04:15.021Z,5.95
2019-03-03T06:06:42.186Z,5.78
2019-03-03T06:09:10.348Z,7.12
2019-03-03T06:11:37.930Z,6.60
2019-03-03T06:14:05.363Z,6.05
2019-03-03T06:16:32.391Z,6.35
2019-03-03T06:18:59.826Z,6.42
2019-03-03T06:21:27.599Z,7.45
2019-03-03T06:23:55.369Z,7.97
2019-03-03T06:26:22.653Z,6.78
2019-03-03T06:28:49.876Z,7.83
2019-03-03T06:31:17.329Z,8.63
2019-03-03T06:33:44.558Z,8.95
2019-03-03T06:36:11.539Z,8.18
2019-03-03T06:38:38.582Z,8.30
2019-03-03T06:41:05.926Z,8.45
2019-03-03T06:43:33.540Z,8.33
2019-03-03T06:46:00.742Z,6.33
2019-03-03T06:48:28.235Z,8.10
2019-03-03T06:50:55.263Z,7.90
2019-03-03T06:53:22.706Z,7.00
2019-03-03T06:55:49.718Z,8.80
2019-03-03T06:58:19.479Z,7.80
2019-03-03T07:00:46.500Z,7.85
2019-03-03T07:03:14.026Z,7.28
2019-03-03T07:05:41.334Z,8.08
2019-03-03T07:08:08.716Z,8.03
2019-03-03T07:10:35.804Z,7.85
2019-03-03T07:13:02.913Z,8.23
2019-03-03T07:15:30.218Z,8.20
2019-03-03T07:17:57.287Z,8.58
2019-03-03T07:20:24.348Z,8.20
2019-03-03T07:22:51.514Z,8.05
2019-03-03T07:25:19.576Z,8.03
2019-03-03T07:27:46.572Z,7.78
2019-03-03T07:30:13.918Z,8.25
2019-03-03T07:32:48.343Z,8.03
2019-03-03T07:35:15.571Z,7.42
2019-03-03T07:37:42.621Z,9.00
2019-03-03T07:40:10.078Z,8.65
2019-03-03T07:42:37.182Z,8.75
2019-03-03T07:45:04.762Z,6.15
2019-03-03T07:47:31.906Z,7.50
2019-03-03T07:49:59.024Z,7.55
2019-03-03T07:52:26.118Z,8.95
2019-03-03T07:54:53.573Z,8.20
2019-03-03T07:57:20.547Z,7.60
2019-03-03T07:59:49.080Z,7.60
2019-03-03T08:02:16.209Z,7.75
2019-03-03T08:04:43.357Z,8.05
2019-03-03T08:07:10.715Z,11.97
2019-03-03T08:09:38.145Z,9.03
2019-03-03T08:12:05.185Z,13.50
2019-03-03T08:14:32.243Z,7.90
2019-03-03T08:16:59.644Z,8.78
2019-03-03T08:19:27.079Z,7.55
2019-03-03T08:21:54.193Z,7.95
2019-03-03T08:24:21.287Z,7.92
2019-03-03T08:26:48.875Z,8.23
2019-03-03T08:29:16.732Z,12.20
2019-03-03T08:31:43.707Z,8.93
2019-03-03T08:34:11.330Z,12.93
2019-03-03T08:36:38.517Z,9.03
2019-03-03T08:39:06.986Z,10.68
2019-03-03T08:41:36.145Z,8.48
2019-03-03T08:44:10.288Z,8.35
2019-03-03T08:46:49.276Z,12.07
2019-03-03T08:49:39.679Z,8.10
2019-03-03T08:52:26.805Z,8.45
2019-03-03T08:55:04.071Z,8.28
2019-03-03T08:57:57.369Z,8.60
2019-03-03T09:00:42.535Z,7.03
2019-03-03T09:03:25.221Z,8.53
2019-03-03T09:06:12.211Z,8.50
2019-03-03T09:08:57.560Z,14.15
2019-03-03T09:11:41.740Z,7.12
2019-03-03T09:14:28.265Z,7.20
2019-03-03T09:17:26.628Z,7.95
2019-03-03T09:20:17.635Z,7.25
2019-03-03T09:23:04.367Z,7.58
2019-03-03T09:25:54.026Z,8.28
2019-03-03T09:28:43.552Z,7.72
2019-03-03T09:31:28.554Z,7.03
2019-03-03T09:34:15.514Z,7.40
2019-03-03T09:37:00.176Z,7.17
2019-03-03T09:40:09.045Z,7.20
2019-03-03T09:42:43.884Z,6.65
2019-03-03T09:45:40.034Z,6.95
2019-03-03T09:48:24.610Z,6.78
2019-03-03T09:51:04.661Z,5.55
2019-03-03T09:53:55.555Z,6.33
2019-03-03T09:57:00.389Z,6.40
2019-03-03T09:59:47.166Z,6.42
2019-03-03T10:02:25.931Z,6.97
2019-03-03T10:05:13.807Z,6.72
2019-03-03T10:08:05.197Z,6.80
2019-03-03T10:11:01.030Z,5.47
2019-03-03T10:13:35.923Z,6.60
2019-03-03T10:16:20.577Z,6.65
2019-03-03T10:18:52.992Z,7.17
2019-03-03T10:21:26.781Z,7.78
2019-03-03T10:24:01.199Z,7.65
2019-03-03T10:26:51.164Z,7.03
2019-03-03T10:29:34.719Z,8.90
2019-03-03T10:32:10.490Z,8.00
2019-03-03T10:34:57.250Z,8.73
2019-03-03T10:37:42.659Z,9.13
2019-03-03T10:40:28.510Z,8.15
2019-03-03T10:43:16.896Z,8.95
2019-03-03T10:46:02.131Z,8.98
2019-03-03T10:48:37.414Z,8.63
2019-03-03T10:51:13.891Z,10.60
2019-03-03T10:53:47.687Z,8.60
2019-03-03T10:56:23.882Z,9.10
2019-03-03T10:59:26.117Z,9.78
2019-03-03T11:02:09.239Z,9.48
2019-03-03T11:04:48.736Z,9.10
2019-03-03T11:07:37.029Z,9.65
2019-03-03T11:10:23.346Z,9.53
2019-03-03T11:12:57.576Z,9.28
2019-03-03T11:15:46.545Z,9.48
2019-03-03T11:18:32.497Z,9.18
2019-03-03T11:21:19.686Z,9.35
2019-03-03T11:24:04.962Z,8.80
2019-03-03T11:26:46.432Z,9.03
2019-03-03T11:29:26.230Z,8.58
2019-03-03T11:32:01.619Z,8.85
2019-03-03T11:34:42.887Z,8.58
2019-03-03T11:37:23.000Z,8.03
2019-03-03T11:40:25.045Z,8.33
2019-03-03T11:43:20.736Z,7.42
2019-03-03T11:46:06.010Z,8.53
2019-03-03T11:48:49.607Z,6.90
2019-03-03T11:51:27.131Z,7.70
2019-03-03T11:54:08.670Z,8.68
2019-03-03T11:56:56.759Z,10.43
2019-03-03T11:59:37.447Z,7.50
2019-03-03T12:02:19.291Z,8.35
2019-03-03T12:05:12.823Z,8.00
2019-03-03T12:07:58.330Z,7.80
2019-03-03T12:10:46.099Z,7.83
2019-03-03T12:13:28.260Z,8.70
2019-03-03T12:16:18.656Z,9.40
2019-03-03T12:18:54.569Z,9.68
2019-03-03T12:21:28.699Z,9.00
2019-03-03T12:24:07.613Z,8.80
2019-03-03T12:26:56.888Z,9.10
2019-03-03T12:29:44.920Z,8.58
2019-03-03T12:32:27.738Z,7.83
2019-03-03T12:35:06.531Z,6.40
2019-03-03T12:37:56.112Z,6.83
2019-03-03T12:40:48.712Z,8.30
2019-03-03T12:43:21.300Z,7.50
2019-03-03T12:45:56.066Z,7.78
2019-03-03T12:48:34.656Z,9.85
2019-03-03T12:51:09.161Z,8.03
2019-03-03T12:54:05.661Z,7.45
2019-03-03T12:56:45.034Z,7.28
2019-03-03T12:59:30.515Z,6.45
2019-03-03T13:02:20.414Z,6.45
2019-03-03T13:05:05.774Z,7.22
2019-03-03T13:07:58.868Z,6.10
2019-03-03T13:10:45.692Z,6.75
2019-03-03T13:13:44.518Z,8.43
2019-03-03T13:16:18.043Z,8.23
2019-03-03T13:19:05.195Z,8.28
2019-03-03T13:21:47.445Z,9.33
2019-03-03T13:24:26.661Z,8.53
2019-03-03T13:27:07.346Z,7.50
2019-03-03T13:29:52.543Z,7.80
2019-03-03T13:32:38.640Z,7.35
2019-03-03T13:35:18.650Z,7.12
2019-03-03T13:38:06.305Z,8.00
2019-03-03T13:40:44.166Z,7.75
2019-03-03T13:43:11.317Z,6.95
2019-03-03T13:45:38.555Z,6.60
2019-03-03T13:48:06.140Z,5.08
2019-03-03T13:50:33.438Z,7.37
2019-03-03T13:53:00.569Z,8.28
2019-03-03T13:55:27.696Z,7.30
2019-03-03T13:57:55.179Z,6.70
2019-03-03T14:00:22.587Z,6.33
2019-03-03T14:02:50.238Z,6.75
2019-03-03T14:05:19.153Z,7.80
2019-03-03T14:07:46.461Z,7.40
2019-03-03T14:10:14.210Z,7.33
2019-03-03T14:12:41.510Z,7.70
2019-03-03T14:15:09.375Z,5.72
2019-03-03T14:17:36.576Z,6.17
2019-03-03T14:20:06.461Z,6.05
2019-03-03T14:22:33.483Z,6.95
2019-03-03T14:25:00.603Z,7.25
2019-03-03T14:27:27.838Z,6.60
2019-03-03T14:29:54.968Z,7.22
2019-03-03T14:32:22.116Z,7.40
2019-03-03T14:34:49.619Z,6.58
2019-03-03T14:37:17.006Z,7.78
2019-03-03T14:39:44.773Z,7.58
2019-03-03T14:42:11.779Z,8.65
2019-03-03T14:44:38.993Z,11.78
2019-03-03T14:47:06.048Z,11.65
2019-03-03T14:49:33.487Z,10.03
2019-03-03T14:52:01.360Z,11.12
2019-03-03T14:54:28.311Z,12.68
2019-03-03T14:56:55.358Z,9.48
2019-03-03T14:59:22.335Z,9.85
2019-03-03T15:01:49.405Z,5.85
2019-03-03T15:04:16.466Z,6.03
2019-03-03T15:06:43.641Z,5.45
2019-03-03T15:09:23.460Z,4.87
2019-03-03T15:11:50.868Z,4.67
2019-03-03T15:14:18.191Z,5.08
2019-03-03T15:16:45.671Z,5.05
2019-03-03T15:19:12.922Z,5.55
2019-03-03T15:21:40.207Z,4.60
2019-03-03T15:24:07.436Z,5.15
2019-03-03T15:26:34.767Z,5.12
2019-03-03T15:29:02.249Z,4.35
2019-03-03T15:31:37.425Z,5.50
2019-03-03T15:33:58.357Z,5.90
2019-03-03T15:36:25.644Z,6.53
2019-03-03T15:38:52.923Z,6.20
2019-03-03T15:41:19.923Z,6.40
2019-03-03T15:43:47.379Z,6.08
2019-03-03T15:46:14.688Z,5.47
2019-03-03T15:48:41.779Z,5.87
2019-03-03T15:51:09.257Z,7.37
2019-03-03T15:53:36.534Z,6.33
2019-03-03T15:56:04.006Z,8.83
2019-03-03T15:58:31.117Z,9.13
2019-03-03T16:00:58.579Z,13.72
2019-03-03T16:03:25.634Z,16.60
2019-03-03T16:05:52.630Z,14.93
2019-03-03T16:08:19.782Z,9.08
2019-03-03T16:10:47.266Z,10.23
2019-03-03T16:13:14.334Z,8.30
2019-03-03T16:15:41.449Z,12.18
2019-03-03T16:18:08.785Z,9.03
2019-03-03T16:20:35.878Z,10.72
2019-03-03T16:23:03.464Z,10.68
2019-03-03T16:25:30.658Z,11.83
2019-03-03T16:27:57.921Z,14.47
2019-03-03T16:30:25.040Z,10.72
2019-03-03T16:32:52.154Z,11.25
2019-03-03T16:35:19.442Z,11.75
2019-03-03T16:37:46.881Z,10.18
2019-03-03T16:40:16.236Z,12.00
2019-03-03T16:42:43.570Z,11.73
2019-03-03T16:45:11.651Z,13.48
2019-03-03T16:47:38.764Z,9.40
2019-03-03T16:50:07.814Z,8.03
2019-03-03T16:52:34.987Z,7.05
2019-03-03T16:55:02.191Z,6.90
2019-03-03T16:57:29.318Z,7.65
2019-03-03T16:59:56.620Z,6.75
2019-03-03T17:02:23.831Z,7.65
2019-03-03T17:04:50.828Z,7.25
2019-03-03T17:07:18.071Z,6.67
2019-03-03T17:09:45.104Z,6.90
2019-03-03T17:12:12.480Z,7.05
2019-03-03T17:14:39.479Z,6.62
2019-03-03T17:17:06.636Z,6.40
2019-03-03T17:19:34.335Z,7.35
2019-03-03T17:22:01.799Z,6.95
2019-03-03T17:24:28.810Z,7.15
2019-03-03T17:26:56.199Z,7.33
2019-03-03T17:29:23.221Z,7.10
2019-03-03T17:31:50.234Z,7.35
2019-03-03T17:34:17.339Z,8.03
2019-03-03T17:36:44.905Z,6.65
2019-03-03T17:39:12.358Z,6.62
2019-03-03T17:41:39.709Z,6.75
2019-03-03T17:44:06.960Z,6.70
2019-03-03T17:46:34.342Z,7.50
2019-03-03T17:49:01.322Z,7.70
2019-03-03T17:51:28.523Z,8.38
2019-03-03T17:53:55.562Z,8.08
2019-03-03T17:56:22.606Z,7.90
2019-03-03T17:58:50.269Z,7.92
2019-03-03T18:01:17.403Z,7.35
2019-03-03T18:03:44.705Z,7.55
2019-03-03T18:06:12.055Z,7.95
2019-03-03T18:08:39.182Z,9.35
2019-03-03T18:11:06.533Z,10.18
2019-03-03T18:13:33.674Z,9.53
2019-03-03T18:16:00.783Z,10.60
2019-03-03T18:18:27.875Z,12.80
2019-03-03T18:20:54.934Z,12.73
2019-03-03T18:23:22.379Z,13.45
2019-03-03T18:25:49.598Z,11.12
2019-03-03T18:28:16.759Z,10.65
2019-03-03T18:30:43.971Z,13.00
2019-03-03T18:33:11.155Z,12.47
2019-03-03T18:35:38.249Z,15.10
2019-03-03T18:38:05.366Z,11.80
2019-03-03T18:40:32.444Z,10.60
2019-03-03T18:42:59.472Z,12.80
2019-03-03T18:45:26.563Z,11.15
2019-03-03T18:47:54.640Z,13.08
2019-03-03T18:50:22.847Z,12.18
2019-03-03T18:52:50.021Z,13.43
2019-03-03T18:55:17.200Z,11.75
2019-03-03T18:57:44.767Z,12.37
2019-03-03T19:00:14.343Z,12.63
2019-03-03T19:02:41.918Z,13.18
2019-03-03T19:05:09.273Z,12.10
2019-03-03T19:07:36.328Z,12.40
2019-03-03T19:10:04.372Z,12.33
2019-03-03T19:12:31.929Z,11.05
2019-03-03T19:14:59.215Z,13.03
2019-03-03T19:17:27.207Z,12.82
2019-03-03T19:19:54.201Z,12.70
2019-03-03T19:22:21.687Z,12.25
2019-03-03T19:24:48.696Z,13.43
2019-03-03T19:27:15.849Z,13.25
2019-03-03T19:29:42.877Z,18.82
2019-03-03T19:32:09.954Z,12.03
2019-03-03T19:34:37.096Z,14.00
2019-03-03T19:37:04.519Z,14.25
2019-03-03T19:39:32.016Z,18.35
2019-03-03T19:41:59.205Z,11.68
2019-03-03T19:44:26.434Z,11.57
2019-03-03T19:46:53.768Z,12.98
2019-03-03T19:49:20.822Z,15.15
2019-03-03T19:51:48.215Z,14.23
2019-03-03T19:54:15.357Z,13.93
2019-03-03T19:56:42.846Z,14.53
2019-03-03T19:59:09.936Z,14.93
2019-03-03T20:01:37.087Z,16.30
2019-03-03T20:04:04.213Z,13.15
2019-03-03T20:06:31.399Z,14.23
2019-03-03T20:08:58.560Z,14.25
2019-03-03T20:11:25.762Z,14.60
2019-03-03T20:13:52.759Z,15.32
2019-03-03T20:16:19.989Z,17.15
2019-03-03T20:18:47.494Z,16.62
2019-03-03T20:21:14.859Z,16.15
2019-03-03T20:23:41.865Z,17.55
2019-03-03T20:26:09.083Z,17.17
2019-03-03T20:28:36.953Z,16.73
2019-03-03T20:31:04.187Z,17.87
2019-03-03T20:33:32.003Z,18.77
2019-03-03T20:35:59.196Z,17.92
2019-03-03T20:38:26.451Z,17.57
2019-03-03T20:40:53.424Z,19.55
2019-03-03T20:43:20.474Z,19.02
2019-03-03T20:45:48.039Z,19.90
2019-03-03T20:48:15.260Z,17.42
2019-03-03T20:50:42.310Z,18.82
2019-03-03T20:53:09.394Z,19.35
2019-03-03T20:55:37.018Z,20.55
2019-03-03T20:58:04.168Z,20.40
2019-03-03T21:00:31.482Z,19.35
2019-03-03T21:02:59.222Z,19.32
2019-03-03T21:05:26.513Z,18.65
2019-03-03T21:07:53.743Z,16.17
2019-03-03T21:10:21.436Z,18.25
2019-03-03T21:12:48.779Z,17.42
2019-03-03T21:15:16.063Z,18.55
2019-03-03T21:17:43.070Z,20.02
2019-03-03T21:20:12.187Z,19.12
2019-03-03T21:22:41.607Z,17.02
2019-03-03T21:25:09.243Z,17.00
2019-03-03T21:27:36.442Z,16.93
2019-03-03T21:30:06.743Z,16.90
2019-03-03T21:32:33.824Z,16.85
2019-03-03T21:35:00.969Z,16.80
2019-03-03T21:37:28.005Z,15.55
2019-03-03T21:39:55.147Z,13.85
2019-03-03T21:42:23.951Z,14.38
2019-03-03T21:44:50.975Z,15.23
2019-03-03T21:47:17.962Z,14.98
2019-03-03T21:49:44.962Z,17.23
2019-03-03T21:52:12.011Z,17.25
2019-03-03T21:54:39.483Z,13.50
2019-03-03T21:57:06.595Z,14.23
2019-03-03T21:59:34.722Z,14.83
2019-03-03T22:02:01.914Z,14.20
2019-03-03T22:04:28.958Z,15.95
2019-03-03T22:06:55.974Z,14.38
2019-03-03T22:09:23.042Z,13.15
2019-03-03T22:11:50.407Z,13.72
2019-03-03T22:14:17.543Z,11.57
2019-03-03T22:16:44.971Z,11.68
2019-03-03T22:19:11.970Z,12.60
2019-03-03T22:21:39.016Z,11.18
2019-03-03T22:24:06.056Z,11.68
2019-03-03T22:26:33.419Z,10.50
2019-03-03T22:29:01.209Z,12.25
2019-03-03T22:31:28.454Z,12.33
2019-03-03T22:33:55.490Z,10.08
2019-03-03T22:36:23.101Z,12.33
2019-03-03T22:38:50.394Z,10.43
2019-03-03T22:41:17.350Z,12.15
2019-03-03T22:43:44.357Z,10.78
2019-03-03T22:46:12.960Z,10.13
2019-03-03T22:48:40.266Z,10.40
2019-03-03T22:51:07.596Z,9.88
2019-03-03T22:53:34.586Z,9.85
2019-03-03T22:56:01.984Z,9.45
2019-03-03T22:58:29.360Z,9.55
2019-03-03T23:01:00.589Z,10.82
2019-03-03T23:03:34.541Z,9.05
2019-03-03T23:06:31.663Z,9.35
2019-03-03T23:09:17.786Z,9.48
2019-03-03T23:11:58.223Z,8.40
2019-03-03T23:15:02.195Z,9.10
2019-03-03T23:17:52.794Z,9.80
2019-03-03T23:20:48.148Z,8.48
2019-03-03T23:24:00.549Z,8.78
2019-03-03T23:26:27.527Z,7.62
2019-03-03T23:28:55.434Z,8.10
2019-03-03T23:31:22.790Z,7.72
2019-03-03T23:33:49.870Z,6.97
2019-03-03T23:36:16.854Z,9.18
2019-03-03T23:38:44.139Z,7.53
2019-03-03T23:41:11.470Z,8.90
2019-03-03T23:43:38.471Z,7.78
2019-03-03T23:46:05.458Z,8.35
2019-03-03T23:48:32.955Z,7.67
2019-03-03T23:51:00.292Z,8.13
2019-03-03T23:53:27.527Z,9.23
2019-03-03T23:55:54.948Z,8.48
2019-03-03T23:58:22.295Z,8.13
